sensor_id;sensor_type;location;lat;lon;timestamp;P1;durP1;ratioP1;P2;durP2;ratioP2
4939;SDS011;2485;49.326;7.214;2022-12-22T00:02:16;3.20;;;2.20;;
4939;SDS011;2485;49.326;7.214;2022-12-22T00:05:01;6.20;;;2.07;;
4939;SDS011;2485;49.326;7.214;2022-12-22T00:07:45;5.70;;;1.90;;
4939;SDS011;2485;49.326;7.214;2022-12-22T00:10:29;3.33;;;1.97;;
4939;SDS011;2485;49.326;7.214;2022-12-22T00:13:12;1.57;;;1.40;;
4939;SDS011;2485;49.326;7.214;2022-12-22T00:15:59;2.57;;;1.53;;
4939;SDS011;2485;49.326;7.214;2022-12-22T00:18:43;2.70;;;1.60;;
4939;SDS011;2485;49.326;7.214;2022-12-22T00:21:27;2.10;;;1.80;;
4939;SDS011;2485;49.326;7.214;2022-12-22T00:24:12;2.90;;;1.70;;
4939;SDS011;2485;49.326;7.214;2022-12-22T00:26:56;1.60;;;1.37;;
4939;SDS011;2485;49.326;7.214;2022-12-22T00:29:40;3.43;;;1.50;;
4939;SDS011;2485;49.326;7.214;2022-12-22T00:32:26;3.20;;;1.47;;
4939;SDS011;2485;49.326;7.214;2022-12-22T00:35:14;1.70;;;1.13;;
4939;SDS011;2485;49.326;7.214;2022-12-22T00:37:58;1.67;;;1.57;;
4939;SDS011;2485;49.326;7.214;2022-12-22T00:40:42;2.70;;;1.90;;
4939;SDS011;2485;49.326;7.214;2022-12-22T00:43:26;1.43;;;1.33;;
4939;SDS011;2485;49.326;7.214;2022-12-22T00:46:10;1.90;;;1.63;;
4939;SDS011;2485;49.326;7.214;2022-12-22T00:48:56;3.47;;;1.73;;
4939;SDS011;2485;49.326;7.214;2022-12-22T00:51:40;4.40;;;1.80;;
4939;SDS011;2485;49.326;7.214;2022-12-22T00:54:24;3.47;;;1.80;;
4939;SDS011;2485;49.326;7.214;2022-12-22T00:57:08;2.73;;;1.80;;
4939;SDS011;2485;49.326;7.214;2022-12-22T00:59:57;1.90;;;1.67;;
4939;SDS011;2485;49.326;7.214;2022-12-22T01:02:41;1.40;;;1.30;;
4939;SDS011;2485;49.326;7.214;2022-12-22T01:05:26;2.00;;;1.80;;
4939;SDS011;2485;49.326;7.214;2022-12-22T01:08:10;2.40;;;1.70;;
4939;SDS011;2485;49.326;7.214;2022-12-22T01:10:54;1.80;;;1.60;;
4939;SDS011;2485;49.326;7.214;2022-12-22T01:13:38;2.43;;;1.50;;
4939;SDS011;2485;49.326;7.214;2022-12-22T01:16:22;1.70;;;1.43;;
4939;SDS011;2485;49.326;7.214;2022-12-22T01:19:06;2.37;;;1.73;;
4939;SDS011;2485;49.326;7.214;2022-12-22T01:21:52;2.27;;;1.60;;
4939;SDS011;2485;49.326;7.214;2022-12-22T01:24:35;2.63;;;1.90;;
4939;SDS011;2485;49.326;7.214;2022-12-22T01:27:19;3.03;;;1.77;;
4939;SDS011;2485;49.326;7.214;2022-12-22T01:30:04;2.80;;;2.00;;
4939;SDS011;2485;49.326;7.214;2022-12-22T01:32:48;2.63;;;1.90;;
4939;SDS011;2485;49.326;7.214;2022-12-22T01:35:33;4.03;;;2.27;;
4939;SDS011;2485;49.326;7.214;2022-12-22T01:38:18;6.13;;;2.07;;
4939;SDS011;2485;49.326;7.214;2022-12-22T01:41:03;1.80;;;1.70;;
4939;SDS011;2485;49.326;7.214;2022-12-22T01:43:47;1.93;;;1.80;;
4939;SDS011;2485;49.326;7.214;2022-12-22T01:46:32;2.67;;;2.03;;
4939;SDS011;2485;49.326;7.214;2022-12-22T01:49:17;2.20;;;2.00;;
4939;SDS011;2485;49.326;7.214;2022-12-22T01:52:01;4.50;;;1.80;;
4939;SDS011;2485;49.326;7.214;2022-12-22T01:54:47;5.47;;;2.40;;
4939;SDS011;2485;49.326;7.214;2022-12-22T01:57:31;4.70;;;2.80;;
4939;SDS011;2485;49.326;7.214;2022-12-22T02:00:15;3.23;;;2.00;;
4939;SDS011;2485;49.326;7.214;2022-12-22T02:02:59;2.30;;;2.10;;
4939;SDS011;2485;49.326;7.214;2022-12-22T02:05:44;5.23;;;2.03;;
4939;SDS011;2485;49.326;7.214;2022-12-22T02:08:32;5.80;;;3.00;;
4939;SDS011;2485;49.326;7.214;2022-12-22T02:11:24;3.50;;;2.00;;
4939;SDS011;2485;49.326;7.214;2022-12-22T02:14:12;4.00;;;1.90;;
4939;SDS011;2485;49.326;7.214;2022-12-22T02:17:00;5.40;;;2.43;;
4939;SDS011;2485;49.326;7.214;2022-12-22T02:19:57;9.57;;;3.90;;
4939;SDS011;2485;49.326;7.214;2022-12-22T02:22:44;6.60;;;2.53;;
4939;SDS011;2485;49.326;7.214;2022-12-22T02:25:30;2.50;;;2.00;;
4939;SDS011;2485;49.326;7.214;2022-12-22T02:28:18;5.10;;;2.20;;
4939;SDS011;2485;49.326;7.214;2022-12-22T02:31:04;3.90;;;2.20;;
4939;SDS011;2485;49.326;7.214;2022-12-22T02:33:49;6.00;;;2.50;;
4939;SDS011;2485;49.326;7.214;2022-12-22T02:36:35;3.30;;;1.97;;
4939;SDS011;2485;49.326;7.214;2022-12-22T02:39:23;3.90;;;2.30;;
4939;SDS011;2485;49.326;7.214;2022-12-22T02:42:14;6.53;;;2.23;;
4939;SDS011;2485;49.326;7.214;2022-12-22T02:45:03;4.33;;;2.60;;
4939;SDS011;2485;49.326;7.214;2022-12-22T02:47:54;5.40;;;2.80;;
4939;SDS011;2485;49.326;7.214;2022-12-22T02:50:44;5.20;;;2.33;;
4939;SDS011;2485;49.326;7.214;2022-12-22T02:53:29;3.07;;;2.13;;
4939;SDS011;2485;49.326;7.214;2022-12-22T02:56:14;4.00;;;3.50;;
4939;SDS011;2485;49.326;7.214;2022-12-22T02:58:58;3.83;;;2.67;;
4939;SDS011;2485;49.326;7.214;2022-12-22T03:01:44;7.30;;;2.60;;
4939;SDS011;2485;49.326;7.214;2022-12-22T03:04:28;3.37;;;2.60;;
4939;SDS011;2485;49.326;7.214;2022-12-22T03:07:12;3.30;;;2.57;;
4939;SDS011;2485;49.326;7.214;2022-12-22T03:09:56;6.30;;;2.13;;
4939;SDS011;2485;49.326;7.214;2022-12-22T03:12:39;5.37;;;2.20;;
4939;SDS011;2485;49.326;7.214;2022-12-22T03:15:23;3.37;;;1.90;;
4939;SDS011;2485;49.326;7.214;2022-12-22T03:18:09;5.77;;;2.10;;
4939;SDS011;2485;49.326;7.214;2022-12-22T03:20:53;8.60;;;2.17;;
4939;SDS011;2485;49.326;7.214;2022-12-22T03:23:38;6.83;;;2.07;;
4939;SDS011;2485;49.326;7.214;2022-12-22T03:26:22;4.40;;;2.07;;
4939;SDS011;2485;49.326;7.214;2022-12-22T03:28:48;2.37;;;1.50;;
4939;SDS011;2485;49.326;7.214;2022-12-22T03:31:14;3.80;;;1.53;;
4939;SDS011;2485;49.326;7.214;2022-12-22T03:33:42;4.70;;;1.50;;
4939;SDS011;2485;49.326;7.214;2022-12-22T03:36:09;3.43;;;1.30;;
4939;SDS011;2485;49.326;7.214;2022-12-22T03:38:35;1.97;;;1.50;;
4939;SDS011;2485;49.326;7.214;2022-12-22T03:41:02;1.50;;;1.40;;
4939;SDS011;2485;49.326;7.214;2022-12-22T03:43:28;3.40;;;1.40;;
4939;SDS011;2485;49.326;7.214;2022-12-22T03:46:23;1.80;;;1.30;;
4939;SDS011;2485;49.326;7.214;2022-12-22T03:48:57;3.13;;;1.37;;
4939;SDS011;2485;49.326;7.214;2022-12-22T03:51:36;3.67;;;1.60;;
4939;SDS011;2485;49.326;7.214;2022-12-22T03:54:03;2.80;;;1.00;;
4939;SDS011;2485;49.326;7.214;2022-12-22T03:56:29;1.60;;;1.20;;
4939;SDS011;2485;49.326;7.214;2022-12-22T03:58:56;4.60;;;1.53;;
4939;SDS011;2485;49.326;7.214;2022-12-22T04:01:22;2.23;;;1.20;;
4939;SDS011;2485;49.326;7.214;2022-12-22T04:03:49;3.97;;;1.67;;
4939;SDS011;2485;49.326;7.214;2022-12-22T04:06:17;1.77;;;1.20;;
4939;SDS011;2485;49.326;7.214;2022-12-22T04:08:43;3.20;;;1.40;;
4939;SDS011;2485;49.326;7.214;2022-12-22T04:11:10;2.30;;;1.60;;
4939;SDS011;2485;49.326;7.214;2022-12-22T04:13:54;2.67;;;1.50;;
4939;SDS011;2485;49.326;7.214;2022-12-22T04:16:20;1.33;;;1.23;;
4939;SDS011;2485;49.326;7.214;2022-12-22T04:18:47;8.43;;;1.90;;
4939;SDS011;2485;49.326;7.214;2022-12-22T04:21:13;4.00;;;1.60;;
4939;SDS011;2485;49.326;7.214;2022-12-22T04:23:41;1.67;;;1.47;;
4939;SDS011;2485;49.326;7.214;2022-12-22T04:26:07;6.07;;;2.30;;
4939;SDS011;2485;49.326;7.214;2022-12-22T04:28:34;3.43;;;1.77;;
4939;SDS011;2485;49.326;7.214;2022-12-22T04:31:00;4.83;;;3.10;;
4939;SDS011;2485;49.326;7.214;2022-12-22T04:33:26;4.63;;;1.77;;
4939;SDS011;2485;49.326;7.214;2022-12-22T04:35:53;2.50;;;1.53;;
4939;SDS011;2485;49.326;7.214;2022-12-22T04:38:19;3.87;;;1.90;;
4939;SDS011;2485;49.326;7.214;2022-12-22T04:40:47;4.30;;;1.90;;
4939;SDS011;2485;49.326;7.214;2022-12-22T04:43:13;3.77;;;1.80;;
4939;SDS011;2485;49.326;7.214;2022-12-22T04:45:39;4.00;;;1.67;;
4939;SDS011;2485;49.326;7.214;2022-12-22T04:48:06;3.17;;;1.60;;
4939;SDS011;2485;49.326;7.214;2022-12-22T04:50:32;5.33;;;2.10;;
4939;SDS011;2485;49.326;7.214;2022-12-22T04:52:58;4.37;;;1.63;;
4939;SDS011;2485;49.326;7.214;2022-12-22T04:55:25;4.30;;;1.63;;
4939;SDS011;2485;49.326;7.214;2022-12-22T04:57:52;2.90;;;1.80;;
4939;SDS011;2485;49.326;7.214;2022-12-22T05:00:19;2.60;;;1.20;;
4939;SDS011;2485;49.326;7.214;2022-12-22T05:02:45;4.47;;;1.60;;
4939;SDS011;2485;49.326;7.214;2022-12-22T05:05:11;1.80;;;1.70;;
4939;SDS011;2485;49.326;7.214;2022-12-22T05:07:38;4.77;;;2.03;;
4939;SDS011;2485;49.326;7.214;2022-12-22T05:10:04;4.23;;;1.80;;
4939;SDS011;2485;49.326;7.214;2022-12-22T05:12:31;2.67;;;1.80;;
4939;SDS011;2485;49.326;7.214;2022-12-22T05:15:16;12.53;;;1.87;;
4939;SDS011;2485;49.326;7.214;2022-12-22T05:17:42;7.60;;;2.17;;
4939;SDS011;2485;49.326;7.214;2022-12-22T05:20:09;4.30;;;1.90;;
4939;SDS011;2485;49.326;7.214;2022-12-22T05:22:35;5.70;;;1.90;;
4939;SDS011;2485;49.326;7.214;2022-12-22T05:25:01;3.90;;;2.23;;
4939;SDS011;2485;49.326;7.214;2022-12-22T05:27:28;3.50;;;1.70;;
4939;SDS011;2485;49.326;7.214;2022-12-22T05:29:54;5.30;;;2.07;;
4939;SDS011;2485;49.326;7.214;2022-12-22T05:32:22;7.10;;;1.73;;
4939;SDS011;2485;49.326;7.214;2022-12-22T05:34:48;5.33;;;1.97;;
4939;SDS011;2485;49.326;7.214;2022-12-22T05:37:14;5.40;;;2.10;;
4939;SDS011;2485;49.326;7.214;2022-12-22T05:39:41;5.07;;;2.90;;
4939;SDS011;2485;49.326;7.214;2022-12-22T05:42:07;4.53;;;2.00;;
4939;SDS011;2485;49.326;7.214;2022-12-22T05:44:34;2.80;;;1.60;;
4939;SDS011;2485;49.326;7.214;2022-12-22T05:47:00;7.70;;;1.33;;
4939;SDS011;2485;49.326;7.214;2022-12-22T05:49:28;8.53;;;1.67;;
4939;SDS011;2485;49.326;7.214;2022-12-22T05:51:54;2.17;;;1.13;;
4939;SDS011;2485;49.326;7.214;2022-12-22T05:54:21;2.47;;;1.47;;
4939;SDS011;2485;49.326;7.214;2022-12-22T05:56:47;3.47;;;1.50;;
4939;SDS011;2485;49.326;7.214;2022-12-22T05:59:14;4.50;;;1.53;;
4939;SDS011;2485;49.326;7.214;2022-12-22T06:01:40;2.73;;;1.20;;
4939;SDS011;2485;49.326;7.214;2022-12-22T06:04:06;8.37;;;2.17;;
4939;SDS011;2485;49.326;7.214;2022-12-22T06:06:34;8.23;;;1.40;;
4939;SDS011;2485;49.326;7.214;2022-12-22T06:09:00;2.30;;;1.20;;
4939;SDS011;2485;49.326;7.214;2022-12-22T06:11:27;5.87;;;1.90;;
4939;SDS011;2485;49.326;7.214;2022-12-22T06:13:53;3.60;;;1.77;;
4939;SDS011;2485;49.326;7.214;2022-12-22T06:16:19;5.90;;;1.57;;
4939;SDS011;2485;49.326;7.214;2022-12-22T06:18:46;4.33;;;1.47;;
4939;SDS011;2485;49.326;7.214;2022-12-22T06:21:12;4.20;;;1.40;;
4939;SDS011;2485;49.326;7.214;2022-12-22T06:23:40;5.30;;;1.73;;
4939;SDS011;2485;49.326;7.214;2022-12-22T06:26:07;4.60;;;1.90;;
4939;SDS011;2485;49.326;7.214;2022-12-22T06:28:34;11.40;;;1.70;;
4939;SDS011;2485;49.326;7.214;2022-12-22T06:31:00;6.77;;;2.17;;
4939;SDS011;2485;49.326;7.214;2022-12-22T06:33:26;6.73;;;2.10;;
4939;SDS011;2485;49.326;7.214;2022-12-22T06:35:53;4.63;;;1.87;;
4939;SDS011;2485;49.326;7.214;2022-12-22T06:38:19;10.80;;;3.27;;
4939;SDS011;2485;49.326;7.214;2022-12-22T06:40:47;5.90;;;1.97;;
4939;SDS011;2485;49.326;7.214;2022-12-22T06:43:13;9.30;;;2.20;;
4939;SDS011;2485;49.326;7.214;2022-12-22T06:45:39;9.90;;;1.60;;
4939;SDS011;2485;49.326;7.214;2022-12-22T06:48:06;17.83;;;2.63;;
4939;SDS011;2485;49.326;7.214;2022-12-22T06:50:33;19.57;;;3.70;;
4939;SDS011;2485;49.326;7.214;2022-12-22T06:52:59;15.13;;;3.33;;
4939;SDS011;2485;49.326;7.214;2022-12-22T06:55:26;9.77;;;2.50;;
4939;SDS011;2485;49.326;7.214;2022-12-22T06:57:53;13.40;;;2.40;;
4939;SDS011;2485;49.326;7.214;2022-12-22T07:00:20;8.87;;;2.80;;
4939;SDS011;2485;49.326;7.214;2022-12-22T07:02:46;12.90;;;2.90;;
4939;SDS011;2485;49.326;7.214;2022-12-22T07:05:13;10.87;;;2.47;;
4939;SDS011;2485;49.326;7.214;2022-12-22T07:07:40;15.40;;;2.70;;
4939;SDS011;2485;49.326;7.214;2022-12-22T07:10:07;11.20;;;2.03;;
4939;SDS011;2485;49.326;7.214;2022-12-22T07:12:33;11.23;;;2.43;;
4939;SDS011;2485;49.326;7.214;2022-12-22T07:15:01;12.83;;;2.53;;
4939;SDS011;2485;49.326;7.214;2022-12-22T07:17:27;7.17;;;1.80;;
4939;SDS011;2485;49.326;7.214;2022-12-22T07:19:54;8.70;;;1.47;;
4939;SDS011;2485;49.326;7.214;2022-12-22T07:22:20;21.03;;;2.63;;
4939;SDS011;2485;49.326;7.214;2022-12-22T07:24:46;20.00;;;3.47;;
4939;SDS011;2485;49.326;7.214;2022-12-22T07:27:14;5.70;;;2.10;;
4939;SDS011;2485;49.326;7.214;2022-12-22T07:29:40;12.17;;;2.43;;
4939;SDS011;2485;49.326;7.214;2022-12-22T07:32:08;10.47;;;2.97;;
4939;SDS011;2485;49.326;7.214;2022-12-22T07:34:34;12.80;;;2.63;;
4939;SDS011;2485;49.326;7.214;2022-12-22T07:37:01;12.23;;;2.77;;
4939;SDS011;2485;49.326;7.214;2022-12-22T07:39:27;22.03;;;3.60;;
4939;SDS011;2485;49.326;7.214;2022-12-22T07:41:53;11.23;;;2.30;;
4939;SDS011;2485;49.326;7.214;2022-12-22T07:44:37;4.37;;;1.73;;
4939;SDS011;2485;49.326;7.214;2022-12-22T07:47:03;4.70;;;2.00;;
4939;SDS011;2485;49.326;7.214;2022-12-22T07:49:31;13.20;;;2.23;;
4939;SDS011;2485;49.326;7.214;2022-12-22T07:52:15;7.60;;;1.87;;
4939;SDS011;2485;49.326;7.214;2022-12-22T07:54:41;15.37;;;2.50;;
4939;SDS011;2485;49.326;7.214;2022-12-22T07:57:07;10.83;;;2.17;;
4939;SDS011;2485;49.326;7.214;2022-12-22T07:59:34;10.50;;;2.90;;
4939;SDS011;2485;49.326;7.214;2022-12-22T08:02:00;5.30;;;2.33;;
4939;SDS011;2485;49.326;7.214;2022-12-22T08:04:27;14.93;;;2.50;;
4939;SDS011;2485;49.326;7.214;2022-12-22T08:06:54;13.83;;;2.77;;
4939;SDS011;2485;49.326;7.214;2022-12-22T08:09:21;17.83;;;3.90;;
4939;SDS011;2485;49.326;7.214;2022-12-22T08:11:47;17.53;;;2.70;;
4939;SDS011;2485;49.326;7.214;2022-12-22T08:14:14;6.33;;;2.03;;
4939;SDS011;2485;49.326;7.214;2022-12-22T08:16:40;12.93;;;2.47;;
4939;SDS011;2485;49.326;7.214;2022-12-22T08:19:07;8.97;;;2.27;;
4939;SDS011;2485;49.326;7.214;2022-12-22T08:21:33;9.97;;;2.57;;
4939;SDS011;2485;49.326;7.214;2022-12-22T08:24:01;11.93;;;2.60;;
4939;SDS011;2485;49.326;7.214;2022-12-22T08:26:29;22.03;;;2.77;;
4939;SDS011;2485;49.326;7.214;2022-12-22T08:28:57;9.37;;;3.73;;
4939;SDS011;2485;49.326;7.214;2022-12-22T08:31:27;7.37;;;2.27;;
4939;SDS011;2485;49.326;7.214;2022-12-22T08:33:54;10.43;;;2.60;;
4939;SDS011;2485;49.326;7.214;2022-12-22T08:36:21;7.70;;;2.90;;
4939;SDS011;2485;49.326;7.214;2022-12-22T08:38:48;13.80;;;3.80;;
4939;SDS011;2485;49.326;7.214;2022-12-22T08:41:15;6.27;;;3.10;;
4939;SDS011;2485;49.326;7.214;2022-12-22T08:44:03;7.10;;;1.30;;
4939;SDS011;2485;49.326;7.214;2022-12-22T08:46:29;3.67;;;1.50;;
4939;SDS011;2485;49.326;7.214;2022-12-22T08:48:56;8.30;;;2.30;;
4939;SDS011;2485;49.326;7.214;2022-12-22T08:51:22;7.70;;;2.17;;
4939;SDS011;2485;49.326;7.214;2022-12-22T08:53:48;8.73;;;1.60;;
4939;SDS011;2485;49.326;7.214;2022-12-22T08:56:16;5.00;;;1.17;;
4939;SDS011;2485;49.326;7.214;2022-12-22T08:58:42;3.80;;;1.63;;
4939;SDS011;2485;49.326;7.214;2022-12-22T09:01:13;3.03;;;1.00;;
4939;SDS011;2485;49.326;7.214;2022-12-22T09:03:40;3.67;;;1.27;;
4939;SDS011;2485;49.326;7.214;2022-12-22T09:06:06;4.00;;;1.67;;
4939;SDS011;2485;49.326;7.214;2022-12-22T09:08:33;3.83;;;1.40;;
4939;SDS011;2485;49.326;7.214;2022-12-22T09:11:01;3.00;;;1.27;;
4939;SDS011;2485;49.326;7.214;2022-12-22T09:13:29;5.07;;;1.13;;
4939;SDS011;2485;49.326;7.214;2022-12-22T09:15:55;7.03;;;1.00;;
4939;SDS011;2485;49.326;7.214;2022-12-22T09:18:22;6.70;;;1.20;;
4939;SDS011;2485;49.326;7.214;2022-12-22T09:20:53;3.93;;;1.03;;
4939;SDS011;2485;49.326;7.214;2022-12-22T09:23:19;1.23;;;0.97;;
4939;SDS011;2485;49.326;7.214;2022-12-22T09:25:45;7.70;;;1.23;;
4939;SDS011;2485;49.326;7.214;2022-12-22T09:28:12;1.27;;;1.10;;
4939;SDS011;2485;49.326;7.214;2022-12-22T09:30:39;1.60;;;1.33;;
4939;SDS011;2485;49.326;7.214;2022-12-22T09:33:06;4.73;;;1.40;;
4939;SDS011;2485;49.326;7.214;2022-12-22T09:35:32;1.70;;;1.07;;
4939;SDS011;2485;49.326;7.214;2022-12-22T09:37:58;2.30;;;1.10;;
4939;SDS011;2485;49.326;7.214;2022-12-22T09:40:25;6.47;;;2.10;;
4939;SDS011;2485;49.326;7.214;2022-12-22T09:42:52;2.20;;;1.10;;
4939;SDS011;2485;49.326;7.214;2022-12-22T09:45:18;3.53;;;1.37;;
4939;SDS011;2485;49.326;7.214;2022-12-22T09:47:46;3.27;;;0.97;;
4939;SDS011;2485;49.326;7.214;2022-12-22T09:50:17;4.17;;;1.30;;
4939;SDS011;2485;49.326;7.214;2022-12-22T09:52:47;3.03;;;0.87;;
4939;SDS011;2485;49.326;7.214;2022-12-22T09:55:18;5.20;;;0.90;;
4939;SDS011;2485;49.326;7.214;2022-12-22T09:57:51;1.20;;;1.10;;
4939;SDS011;2485;49.326;7.214;2022-12-22T10:00:19;4.07;;;1.20;;
4939;SDS011;2485;49.326;7.214;2022-12-22T10:02:50;2.13;;;1.10;;
4939;SDS011;2485;49.326;7.214;2022-12-22T10:05:22;8.27;;;1.33;;
4939;SDS011;2485;49.326;7.214;2022-12-22T10:07:53;1.20;;;0.70;;
4939;SDS011;2485;49.326;7.214;2022-12-22T10:10:24;2.77;;;1.10;;
4939;SDS011;2485;49.326;7.214;2022-12-22T10:12:52;2.90;;;1.00;;
4939;SDS011;2485;49.326;7.214;2022-12-22T10:15:19;1.10;;;0.90;;
4939;SDS011;2485;49.326;7.214;2022-12-22T10:17:46;0.90;;;0.80;;
4939;SDS011;2485;49.326;7.214;2022-12-22T10:20:23;1.27;;;0.90;;
4939;SDS011;2485;49.326;7.214;2022-12-22T10:22:54;2.03;;;1.07;;
4939;SDS011;2485;49.326;7.214;2022-12-22T10:25:27;2.90;;;0.87;;
4939;SDS011;2485;49.326;7.214;2022-12-22T10:27:54;2.47;;;0.70;;
4939;SDS011;2485;49.326;7.214;2022-12-22T10:30:21;0.97;;;0.87;;
4939;SDS011;2485;49.326;7.214;2022-12-22T10:35:47;1.33;;;0.80;;
4939;SDS011;2485;49.326;7.214;2022-12-22T10:38:18;1.33;;;0.80;;
4939;SDS011;2485;49.326;7.214;2022-12-22T10:40:45;1.00;;;0.90;;
4939;SDS011;2485;49.326;7.214;2022-12-22T10:43:16;4.13;;;0.73;;
4939;SDS011;2485;49.326;7.214;2022-12-22T10:45:45;3.17;;;0.70;;
4939;SDS011;2485;49.326;7.214;2022-12-22T10:48:12;0.80;;;0.80;;
4939;SDS011;2485;49.326;7.214;2022-12-22T10:50:42;7.17;;;1.10;;
4939;SDS011;2485;49.326;7.214;2022-12-22T10:53:10;0.90;;;0.80;;
4939;SDS011;2485;49.326;7.214;2022-12-22T10:55:36;1.27;;;1.10;;
4939;SDS011;2485;49.326;7.214;2022-12-22T10:58:13;2.17;;;1.20;;
4939;SDS011;2485;49.326;7.214;2022-12-22T11:00:40;0.80;;;0.70;;
4939;SDS011;2485;49.326;7.214;2022-12-22T11:03:08;0.93;;;0.80;;
4939;SDS011;2485;49.326;7.214;2022-12-22T11:05:35;3.07;;;0.80;;
4939;SDS011;2485;49.326;7.214;2022-12-22T11:08:09;3.70;;;0.90;;
4939;SDS011;2485;49.326;7.214;2022-12-22T11:10:40;2.00;;;0.87;;
4939;SDS011;2485;49.326;7.214;2022-12-22T11:13:17;1.30;;;0.83;;
4939;SDS011;2485;49.326;7.214;2022-12-22T11:15:47;1.07;;;0.80;;
4939;SDS011;2485;49.326;7.214;2022-12-22T11:18:22;0.70;;;0.70;;
4939;SDS011;2485;49.326;7.214;2022-12-22T11:20:50;2.00;;;1.30;;
4939;SDS011;2485;49.326;7.214;2022-12-22T11:23:21;2.60;;;1.13;;
4939;SDS011;2485;49.326;7.214;2022-12-22T11:25:55;2.60;;;1.10;;
4939;SDS011;2485;49.326;7.214;2022-12-22T11:28:30;0.83;;;0.80;;
4939;SDS011;2485;49.326;7.214;2022-12-22T11:31:03;2.83;;;0.87;;
4939;SDS011;2485;49.326;7.214;2022-12-22T11:33:34;1.53;;;1.00;;
4939;SDS011;2485;49.326;7.214;2022-12-22T11:36:05;0.93;;;0.80;;
4939;SDS011;2485;49.326;7.214;2022-12-22T11:38:42;1.73;;;0.77;;
4939;SDS011;2485;49.326;7.214;2022-12-22T11:41:15;1.00;;;0.90;;
4939;SDS011;2485;49.326;7.214;2022-12-22T11:43:48;1.30;;;0.90;;
4939;SDS011;2485;49.326;7.214;2022-12-22T11:46:20;0.90;;;0.70;;
4939;SDS011;2485;49.326;7.214;2022-12-22T11:49:01;1.17;;;0.90;;
4939;SDS011;2485;49.326;7.214;2022-12-22T11:51:35;1.23;;;0.87;;
4939;SDS011;2485;49.326;7.214;2022-12-22T11:54:08;3.13;;;2.37;;
4939;SDS011;2485;49.326;7.214;2022-12-22T11:56:41;1.27;;;1.00;;
4939;SDS011;2485;49.326;7.214;2022-12-22T11:59:13;1.27;;;0.83;;
4939;SDS011;2485;49.326;7.214;2022-12-22T12:01:45;1.00;;;0.80;;
4939;SDS011;2485;49.326;7.214;2022-12-22T12:07:21;1.00;;;0.90;;
4939;SDS011;2485;49.326;7.214;2022-12-22T12:09:50;2.17;;;1.30;;
4939;SDS011;2485;49.326;7.214;2022-12-22T12:12:24;1.50;;;1.23;;
4939;SDS011;2485;49.326;7.214;2022-12-22T12:14:53;1.33;;;1.23;;
4939;SDS011;2485;49.326;7.214;2022-12-22T12:17:24;1.30;;;1.03;;
4939;SDS011;2485;49.326;7.214;2022-12-22T12:19:58;3.33;;;0.90;;
4939;SDS011;2485;49.326;7.214;2022-12-22T12:22:31;4.70;;;1.90;;
4939;SDS011;2485;49.326;7.214;2022-12-22T12:25:01;1.77;;;1.27;;
4939;SDS011;2485;49.326;7.214;2022-12-22T12:27:48;2.90;;;1.10;;
4939;SDS011;2485;49.326;7.214;2022-12-22T12:30:18;1.13;;;0.90;;
4939;SDS011;2485;49.326;7.214;2022-12-22T12:32:46;1.20;;;1.10;;
4939;SDS011;2485;49.326;7.214;2022-12-22T12:35:21;1.07;;;0.97;;
4939;SDS011;2485;49.326;7.214;2022-12-22T12:37:54;1.33;;;1.00;;
4939;SDS011;2485;49.326;7.214;2022-12-22T12:40:26;0.90;;;0.80;;
4939;SDS011;2485;49.326;7.214;2022-12-22T12:42:55;1.07;;;0.97;;
4939;SDS011;2485;49.326;7.214;2022-12-22T12:45:32;2.83;;;1.10;;
4939;SDS011;2485;49.326;7.214;2022-12-22T12:50:40;1.00;;;0.83;;
4939;SDS011;2485;49.326;7.214;2022-12-22T12:53:07;1.63;;;1.00;;
4939;SDS011;2485;49.326;7.214;2022-12-22T13:00:58;3.00;;;1.13;;
4939;SDS011;2485;49.326;7.214;2022-12-22T13:03:37;4.30;;;1.47;;
4939;SDS011;2485;49.326;7.214;2022-12-22T13:06:04;1.03;;;0.93;;
4939;SDS011;2485;49.326;7.214;2022-12-22T13:08:31;1.10;;;1.00;;
4939;SDS011;2485;49.326;7.214;2022-12-22T13:13:48;1.03;;;0.83;;
4939;SDS011;2485;49.326;7.214;2022-12-22T13:16:21;1.37;;;1.03;;
4939;SDS011;2485;49.326;7.214;2022-12-22T13:18:47;1.40;;;1.30;;
4939;SDS011;2485;49.326;7.214;2022-12-22T13:21:15;2.60;;;1.43;;
4939;SDS011;2485;49.326;7.214;2022-12-22T13:23:48;1.87;;;1.20;;
4939;SDS011;2485;49.326;7.214;2022-12-22T13:26:16;1.70;;;1.03;;
4939;SDS011;2485;49.326;7.214;2022-12-22T13:28:51;1.60;;;1.03;;
4939;SDS011;2485;49.326;7.214;2022-12-22T13:31:19;1.27;;;1.07;;
4939;SDS011;2485;49.326;7.214;2022-12-22T13:33:47;1.10;;;0.90;;
4939;SDS011;2485;49.326;7.214;2022-12-22T13:36:17;1.57;;;0.97;;
4939;SDS011;2485;49.326;7.214;2022-12-22T13:38:44;1.97;;;1.00;;
4939;SDS011;2485;49.326;7.214;2022-12-22T13:41:13;1.30;;;1.20;;
4939;SDS011;2485;49.326;7.214;2022-12-22T13:43:40;2.23;;;1.10;;
4939;SDS011;2485;49.326;7.214;2022-12-22T13:46:07;1.70;;;1.30;;
4939;SDS011;2485;49.326;7.214;2022-12-22T13:48:35;1.37;;;1.20;;
4939;SDS011;2485;49.326;7.214;2022-12-22T13:51:06;1.93;;;1.63;;
4939;SDS011;2485;49.326;7.214;2022-12-22T13:53:33;3.53;;;1.30;;
4939;SDS011;2485;49.326;7.214;2022-12-22T13:56:00;2.50;;;1.50;;
4939;SDS011;2485;49.326;7.214;2022-12-22T13:58:27;1.47;;;1.10;;
4939;SDS011;2485;49.326;7.214;2022-12-22T14:01:02;2.50;;;1.37;;
4939;SDS011;2485;49.326;7.214;2022-12-22T14:03:29;1.50;;;1.40;;
4939;SDS011;2485;49.326;7.214;2022-12-22T14:05:56;2.60;;;1.50;;
4939;SDS011;2485;49.326;7.214;2022-12-22T14:08:23;3.90;;;1.40;;
4939;SDS011;2485;49.326;7.214;2022-12-22T14:10:50;1.60;;;1.50;;
4939;SDS011;2485;49.326;7.214;2022-12-22T14:13:18;3.03;;;1.33;;
4939;SDS011;2485;49.326;7.214;2022-12-22T14:15:45;1.83;;;1.43;;
4939;SDS011;2485;49.326;7.214;2022-12-22T14:18:13;2.60;;;1.80;;
4939;SDS011;2485;49.326;7.214;2022-12-22T14:20:39;11.33;;;2.10;;
4939;SDS011;2485;49.326;7.214;2022-12-22T14:23:09;10.93;;;2.90;;
4939;SDS011;2485;49.326;7.214;2022-12-22T14:25:39;17.27;;;3.50;;
4939;SDS011;2485;49.326;7.214;2022-12-22T14:28:10;20.00;;;4.70;;
4939;SDS011;2485;49.326;7.214;2022-12-22T14:30:40;24.57;;;4.10;;
4939;SDS011;2485;49.326;7.214;2022-12-22T14:33:24;29.57;;;4.90;;
4939;SDS011;2485;49.326;7.214;2022-12-22T14:36:02;24.93;;;5.10;;
4939;SDS011;2485;49.326;7.214;2022-12-22T14:38:29;33.43;;;5.87;;
4939;SDS011;2485;49.326;7.214;2022-12-22T14:41:08;34.47;;;6.40;;
4939;SDS011;2485;49.326;7.214;2022-12-22T14:43:56;37.13;;;8.30;;
4939;SDS011;2485;49.326;7.214;2022-12-22T14:46:23;32.67;;;5.10;;
4939;SDS011;2485;49.326;7.214;2022-12-22T14:48:49;43.93;;;6.97;;
4939;SDS011;2485;49.326;7.214;2022-12-22T14:51:16;35.30;;;5.87;;
4939;SDS011;2485;49.326;7.214;2022-12-22T14:53:43;38.30;;;6.43;;
4939;SDS011;2485;49.326;7.214;2022-12-22T14:56:12;29.27;;;5.83;;
4939;SDS011;2485;49.326;7.214;2022-12-22T14:58:39;32.73;;;5.63;;
4939;SDS011;2485;49.326;7.214;2022-12-22T15:01:14;45.07;;;7.00;;
4939;SDS011;2485;49.326;7.214;2022-12-22T15:03:41;32.20;;;5.80;;
4939;SDS011;2485;49.326;7.214;2022-12-22T15:06:29;34.10;;;4.47;;
4939;SDS011;2485;49.326;7.214;2022-12-22T15:09:05;42.40;;;5.70;;
4939;SDS011;2485;49.326;7.214;2022-12-22T15:11:34;44.33;;;6.40;;
4939;SDS011;2485;49.326;7.214;2022-12-22T15:14:01;26.30;;;4.23;;
4939;SDS011;2485;49.326;7.214;2022-12-22T15:16:28;38.03;;;5.90;;
4939;SDS011;2485;49.326;7.214;2022-12-22T15:18:55;45.37;;;7.10;;
4939;SDS011;2485;49.326;7.214;2022-12-22T15:21:21;37.20;;;7.23;;
4939;SDS011;2485;49.326;7.214;2022-12-22T15:23:47;33.07;;;5.83;;
4939;SDS011;2485;49.326;7.214;2022-12-22T15:26:14;44.13;;;6.90;;
4939;SDS011;2485;49.326;7.214;2022-12-22T15:28:41;42.30;;;7.00;;
4939;SDS011;2485;49.326;7.214;2022-12-22T15:31:10;38.00;;;7.50;;
4939;SDS011;2485;49.326;7.214;2022-12-22T15:33:37;42.23;;;6.67;;
4939;SDS011;2485;49.326;7.214;2022-12-22T15:36:04;40.73;;;6.73;;
4939;SDS011;2485;49.326;7.214;2022-12-22T15:38:31;38.50;;;5.30;;
4939;SDS011;2485;49.326;7.214;2022-12-22T15:40:57;32.57;;;6.77;;
4939;SDS011;2485;49.326;7.214;2022-12-22T15:43:26;30.73;;;5.90;;
4939;SDS011;2485;49.326;7.214;2022-12-22T15:45:53;33.37;;;6.57;;
4939;SDS011;2485;49.326;7.214;2022-12-22T15:48:21;42.07;;;7.27;;
4939;SDS011;2485;49.326;7.214;2022-12-22T15:50:48;39.10;;;8.50;;
4939;SDS011;2485;49.326;7.214;2022-12-22T15:53:17;53.10;;;11.70;;
4939;SDS011;2485;49.326;7.214;2022-12-22T15:55:45;37.73;;;7.33;;
4939;SDS011;2485;49.326;7.214;2022-12-22T15:58:13;39.63;;;7.00;;
4939;SDS011;2485;49.326;7.214;2022-12-22T16:00:40;35.20;;;7.33;;